createdAt,value
2023-03-04T00:00:11.433Z,13.50
2023-03-04T00:02:59.629Z,13.70
2023-03-04T00:05:28.001Z,14.93
2023-03-04T00:07:56.027Z,15.15
2023-03-04T00:10:24.776Z,15.27
2023-03-04T00:12:52.851Z,15.10
2023-03-04T00:15:22.471Z,14.95
2023-03-04T00:17:50.656Z,17.38
2023-03-04T00:20:19.113Z,15.30
2023-03-04T00:22:48.087Z,13.57
2023-03-04T00:25:16.657Z,16.43
2023-03-04T00:27:44.714Z,16.23
2023-03-04T00:30:13.375Z,16.35
2023-03-04T00:32:42.765Z,16.42
2023-03-04T00:35:11.073Z,17.88
2023-03-04T00:37:39.151Z,17.13
2023-03-04T00:40:08.261Z,16.75
2023-03-04T00:42:36.382Z,18.00
2023-03-04T00:45:05.204Z,17.77
2023-03-04T00:47:33.289Z,16.35
2023-03-04T00:50:03.060Z,17.80
2023-03-04T00:52:31.185Z,15.75
2023-03-04T00:54:59.419Z,18.58
2023-03-04T00:57:27.477Z,19.73
2023-03-04T00:59:55.689Z,18.17
2023-03-04T01:02:24.952Z,18.73
2023-03-04T01:04:54.683Z,17.95
2023-03-04T01:07:24.549Z,17.50
2023-03-04T01:09:52.958Z,17.73
2023-03-04T01:12:20.993Z,19.17
2023-03-04T01:14:50.613Z,18.40
2023-03-04T01:17:18.937Z,19.13
2023-03-04T01:19:47.318Z,19.20
2023-03-04T01:22:16.720Z,18.67
2023-03-04T01:24:46.392Z,18.63
2023-03-04T01:27:14.432Z,18.47
2023-03-04T01:29:42.759Z,19.67
2023-03-04T01:32:10.827Z,19.98
2023-03-04T01:34:39.243Z,17.95
2023-03-04T01:37:07.339Z,19.08
2023-03-04T01:39:35.628Z,19.40
2023-03-04T01:42:05.254Z,17.77
2023-03-04T01:44:33.600Z,17.45
2023-03-04T01:47:01.591Z,21.60
2023-03-04T01:49:29.901Z,18.50
2023-03-04T01:51:58.067Z,19.50
2023-03-04T01:54:26.336Z,17.75
2023-03-04T01:56:54.431Z,17.55
2023-03-04T01:59:25.400Z,19.02
2023-03-04T02:01:55.032Z,18.65
2023-03-04T02:04:25.976Z,18.33
2023-03-04T02:06:54.364Z,18.83
2023-03-04T02:09:23.215Z,18.60
2023-03-04T02:11:52.253Z,18.40
2023-03-04T02:14:21.692Z,18.10
2023-03-04T02:16:51.523Z,17.83
2023-03-04T02:19:25.853Z,18.95
2023-03-04T02:21:53.878Z,17.13
2023-03-04T02:24:28.334Z,19.63
2023-03-04T02:26:57.815Z,19.05
2023-03-04T02:29:26.195Z,18.93
2023-03-04T02:31:55.392Z,18.70
2023-03-04T02:34:25.582Z,17.77
2023-03-04T02:36:55.600Z,17.13
2023-03-04T02:39:29.232Z,19.48
2023-03-04T02:41:59.458Z,18.67
2023-03-04T02:44:31.584Z,18.30
2023-03-04T02:47:00.056Z,19.10
2023-03-04T02:49:30.055Z,19.20
2023-03-04T02:52:02.467Z,17.88
2023-03-04T02:54:31.179Z,18.50
2023-03-04T02:57:03.151Z,17.55
2023-03-04T02:59:34.509Z,17.83
2023-03-04T03:02:02.777Z,18.05
2023-03-04T03:04:31.275Z,18.92
2023-03-04T03:06:59.338Z,17.87
2023-03-04T03:09:27.916Z,19.23
2023-03-04T03:11:57.469Z,18.55
2023-03-04T03:14:29.172Z,17.35
2023-03-04T03:16:57.446Z,17.35
2023-03-04T03:19:25.794Z,19.23
2023-03-04T03:21:55.111Z,18.13
2023-03-04T03:24:23.384Z,17.58
2023-03-04T03:26:51.423Z,17.45
2023-03-04T03:29:19.919Z,18.63
2023-03-04T03:31:49.592Z,18.47
2023-03-04T03:34:18.004Z,17.63
2023-03-04T03:36:46.160Z,18.92
2023-03-04T03:39:15.590Z,19.30
2023-03-04T03:41:43.661Z,19.60
2023-03-04T03:44:12.044Z,19.90
2023-03-04T03:46:40.244Z,19.20
2023-03-04T03:49:09.866Z,19.42
2023-03-04T03:51:37.870Z,19.58
2023-03-04T03:54:06.176Z,19.05
2023-03-04T03:56:34.148Z,19.43
2023-03-04T03:59:02.630Z,20.52
2023-03-04T04:01:30.724Z,18.45
2023-03-04T04:03:59.006Z,20.40
2023-03-04T04:06:28.699Z,19.00
2023-03-04T04:08:57.008Z,18.83
2023-03-04T04:11:25.060Z,19.80
2023-03-04T04:13:53.356Z,18.73
2023-03-04T04:16:21.538Z,18.17
2023-03-04T04:18:49.875Z,19.45
2023-03-04T04:21:17.955Z,18.83
2023-03-04T04:23:47.564Z,19.55
2023-03-04T04:26:15.630Z,17.48
2023-03-04T04:28:43.914Z,18.65
2023-03-04T04:31:12.057Z,18.83
2023-03-04T04:33:40.379Z,17.93
2023-03-04T04:36:10.960Z,18.77
2023-03-04T04:38:39.205Z,19.17
2023-03-04T04:41:17.682Z,19.17
2023-03-04T04:43:45.935Z,19.88
2023-03-04T04:46:14.014Z,18.97
2023-03-04T04:48:42.360Z,19.48
2023-03-04T04:51:10.407Z,20.45
2023-03-04T04:53:38.926Z,20.05
2023-03-04T04:56:13.101Z,19.70
2023-03-04T04:58:41.609Z,20.80
2023-03-04T05:01:09.800Z,20.27
2023-03-04T05:03:38.915Z,21.15
2023-03-04T05:06:08.874Z,22.05
2023-03-04T05:08:37.385Z,20.45
2023-03-04T05:11:06.708Z,20.60
2023-03-04T05:13:36.324Z,20.02
2023-03-04T05:16:05.162Z,20.85
2023-03-04T05:18:33.533Z,21.98
2023-03-04T05:21:03.157Z,20.27
2023-03-04T05:23:33.822Z,20.00
2023-03-04T05:26:02.042Z,19.50
2023-03-04T05:28:30.742Z,20.75
2023-03-04T05:31:00.680Z,21.77
2023-03-04T05:33:29.125Z,20.50
2023-03-04T05:35:57.384Z,22.53
2023-03-04T05:38:26.923Z,20.50
2023-03-04T05:40:57.880Z,19.73
2023-03-04T05:43:26.387Z,20.40
2023-03-04T05:45:54.433Z,21.33
2023-03-04T05:48:24.256Z,20.90
2023-03-04T05:50:54.742Z,21.23
2023-03-04T05:53:23.131Z,20.17
2023-03-04T05:55:51.421Z,21.20
2023-03-04T05:58:20.136Z,19.65
2023-03-04T06:00:48.646Z,21.33
2023-03-04T06:03:17.643Z,20.52
2023-03-04T06:05:47.086Z,18.27
2023-03-04T06:08:16.656Z,19.92
2023-03-04T06:10:44.683Z,19.90
2023-03-04T06:13:13.144Z,19.57
2023-03-04T06:15:41.575Z,21.77
2023-03-04T06:18:10.142Z,21.08
2023-03-04T06:20:38.502Z,21.05
2023-03-04T06:23:08.266Z,20.20
2023-03-04T06:25:36.470Z,20.53
2023-03-04T06:28:04.942Z,20.50
2023-03-04T06:30:32.969Z,20.20
2023-03-04T06:33:01.247Z,20.30
2023-03-04T06:35:29.508Z,21.38
2023-03-04T06:37:57.789Z,20.10
2023-03-04T06:40:27.263Z,20.50
2023-03-04T06:42:55.651Z,20.48
2023-03-04T06:45:23.724Z,21.88
2023-03-04T06:47:51.982Z,22.75
2023-03-04T06:50:20.292Z,20.93
2023-03-04T06:52:49.354Z,20.92
2023-03-04T06:55:17.565Z,21.58
2023-03-04T06:57:48.628Z,19.33
2023-03-04T07:00:18.117Z,20.60
2023-03-04T07:02:46.503Z,21.47
2023-03-04T07:05:15.145Z,21.75
2023-03-04T07:07:43.477Z,21.65
2023-03-04T07:10:12.496Z,19.63
2023-03-04T07:12:40.851Z,19.25
2023-03-04T07:15:11.535Z,19.70
2023-03-04T07:17:39.870Z,19.25
2023-03-04T07:20:08.785Z,19.73
2023-03-04T07:22:37.279Z,20.92
2023-03-04T07:25:06.510Z,22.33
2023-03-04T07:27:34.923Z,20.70
2023-03-04T07:30:03.238Z,19.15
2023-03-04T07:32:34.422Z,19.48
2023-03-04T07:35:03.477Z,18.95
2023-03-04T07:37:31.922Z,20.25
2023-03-04T07:40:00.006Z,20.77
2023-03-04T07:42:28.810Z,20.40
2023-03-04T07:45:05.433Z,21.52
2023-03-04T07:47:35.169Z,20.35
2023-03-04T07:50:03.443Z,21.63
2023-03-04T07:52:31.778Z,20.03
2023-03-04T07:54:59.831Z,19.15
2023-03-04T07:57:28.141Z,19.58
2023-03-04T07:59:56.214Z,20.55
2023-03-04T08:02:24.608Z,20.50
2023-03-04T08:04:54.128Z,20.53
2023-03-04T08:07:22.490Z,21.67
2023-03-04T08:09:50.732Z,21.70
2023-03-04T08:12:19.248Z,21.33
2023-03-04T08:14:47.483Z,21.30
2023-03-04T08:17:15.937Z,21.63
2023-03-04T08:19:44.005Z,21.00
2023-03-04T08:22:13.779Z,20.85
2023-03-04T08:24:41.827Z,23.45
2023-03-04T08:27:10.328Z,21.70
2023-03-04T08:29:38.406Z,21.27
2023-03-04T08:32:07.204Z,23.80
2023-03-04T08:34:35.346Z,24.55
2023-03-04T08:37:03.675Z,22.52
2023-03-04T08:39:33.303Z,20.58
2023-03-04T08:42:01.825Z,21.47
2023-03-04T08:44:29.882Z,22.38
2023-03-04T08:46:58.402Z,22.40
2023-03-04T08:49:26.468Z,21.75
2023-03-04T08:51:54.823Z,24.02
2023-03-04T08:54:22.866Z,23.67
2023-03-04T08:56:52.496Z,21.83
2023-03-04T08:59:20.617Z,22.35
2023-03-04T09:01:48.976Z,25.23
2023-03-04T09:04:17.067Z,23.85
2023-03-04T09:06:45.389Z,24.83
2023-03-04T09:09:13.425Z,23.15
2023-03-04T09:11:41.796Z,24.38
2023-03-04T09:14:11.186Z,21.70
2023-03-04T09:16:39.441Z,22.25
2023-03-04T09:19:07.529Z,23.43
2023-03-04T09:21:35.899Z,22.90
2023-03-04T09:24:04.235Z,21.75
2023-03-04T09:26:32.647Z,23.00
2023-03-04T09:29:02.556Z,23.27
2023-03-04T09:31:32.950Z,23.10
2023-03-04T09:34:01.331Z,21.52
2023-03-04T09:36:29.653Z,21.70
2023-03-04T09:39:00.482Z,21.45
2023-03-04T09:41:38.823Z,22.88
2023-03-04T09:44:13.426Z,21.13
2023-03-04T09:46:44.806Z,22.45
2023-03-04T09:49:13.665Z,23.00
2023-03-04T09:51:47.210Z,22.42
2023-03-04T09:54:19.900Z,21.75
2023-03-04T09:56:50.644Z,22.80
2023-03-04T09:59:24.664Z,21.85
2023-03-04T10:01:56.024Z,22.65
2023-03-04T10:04:32.339Z,20.00
2023-03-04T10:07:01.684Z,23.10
2023-03-04T10:09:31.435Z,21.60
2023-03-04T10:12:02.768Z,23.95
2023-03-04T10:14:39.856Z,22.90
2023-03-04T10:17:15.058Z,21.50
2023-03-04T10:19:52.783Z,22.88
2023-03-04T10:22:27.193Z,21.40
2023-03-04T10:24:57.636Z,22.23
2023-03-04T10:27:26.044Z,22.90
2023-03-04T10:29:54.306Z,23.20
2023-03-04T10:32:24.265Z,23.45
2023-03-04T10:34:52.333Z,22.67
2023-03-04T10:37:20.590Z,22.27
2023-03-04T10:39:49.521Z,21.90
2023-03-04T10:42:27.729Z,23.55
2023-03-04T10:44:57.608Z,21.67
2023-03-04T10:47:28.779Z,20.90
2023-03-04T10:49:58.291Z,23.25
2023-03-04T10:52:30.002Z,22.90
2023-03-04T10:54:59.788Z,21.35
2023-03-04T10:57:34.351Z,21.55
2023-03-04T11:00:02.648Z,21.20
2023-03-04T11:02:34.818Z,20.95
2023-03-04T11:05:18.640Z,21.98
2023-03-04T11:07:55.657Z,19.70
2023-03-04T11:10:26.695Z,21.90
2023-03-04T11:12:58.079Z,20.73
2023-03-04T11:15:28.260Z,22.67
2023-03-04T11:18:00.496Z,20.65
2023-03-04T11:20:33.288Z,20.70
2023-03-04T11:23:05.151Z,20.25
2023-03-04T11:25:36.208Z,19.23
2023-03-04T11:28:08.797Z,20.25
2023-03-04T11:30:42.155Z,20.30
2023-03-04T11:33:16.572Z,20.60
2023-03-04T11:35:53.292Z,21.63
2023-03-04T11:38:23.113Z,20.87
2023-03-04T11:40:54.384Z,19.98
2023-03-04T11:43:26.730Z,20.65
2023-03-04T11:46:33.399Z,18.25
2023-03-04T11:49:12.424Z,19.67
2023-03-04T11:51:44.947Z,20.20
2023-03-04T11:54:18.824Z,19.13
2023-03-04T11:56:49.451Z,18.30
2023-03-04T11:59:49.488Z,17.80
2023-03-04T12:02:20.374Z,16.42
2023-03-04T12:05:17.410Z,17.33
2023-03-04T12:07:58.934Z,15.85
2023-03-04T12:10:30.243Z,16.02
2023-03-04T12:13:11.064Z,15.57
2023-03-04T12:15:46.942Z,15.38
2023-03-04T12:18:43.732Z,15.67
2023-03-04T12:21:21.009Z,14.60
2023-03-04T12:24:04.302Z,14.48
2023-03-04T12:26:37.859Z,15.32
2023-03-04T12:29:08.942Z,16.63
2023-03-04T12:31:39.927Z,16.20
2023-03-04T12:34:33.569Z,14.05
2023-03-04T12:37:22.997Z,15.05
2023-03-04T12:40:01.481Z,14.85
2023-03-04T12:42:39.029Z,12.60
2023-03-04T12:45:17.803Z,14.43
2023-03-04T12:47:53.415Z,13.18
2023-03-04T12:50:31.419Z,13.95
2023-03-04T12:53:10.954Z,13.93
2023-03-04T12:55:40.456Z,13.77
2023-03-04T12:58:16.358Z,13.80
2023-03-04T13:00:50.587Z,13.90
2023-03-04T13:03:23.313Z,14.32
2023-03-04T13:06:28.048Z,14.32
2023-03-04T13:09:02.139Z,13.65
2023-03-04T13:11:52.696Z,13.43
2023-03-04T13:14:29.571Z,15.35
2023-03-04T13:17:01.526Z,14.80
2023-03-04T13:19:52.546Z,13.60
2023-03-04T13:22:34.216Z,14.63
2023-03-04T13:25:37.759Z,14.30
2023-03-04T13:28:33.000Z,13.60
2023-03-04T13:31:14.981Z,14.38
2023-03-04T13:34:01.948Z,13.90
2023-03-04T13:36:55.919Z,13.88
2023-03-04T13:39:34.792Z,13.50
2023-03-04T13:42:06.540Z,15.32
2023-03-04T13:45:04.920Z,14.30
2023-03-04T13:47:48.618Z,14.45
2023-03-04T13:50:31.641Z,14.20
2023-03-04T13:53:02.615Z,14.93
2023-03-04T13:55:39.196Z,13.38
2023-03-04T13:58:24.232Z,13.30
2023-03-04T14:00:55.132Z,12.38
2023-03-04T14:03:25.812Z,13.48
2023-03-04T14:06:17.890Z,12.87
2023-03-04T14:08:46.904Z,13.18
2023-03-04T14:11:16.883Z,20.08
2023-03-04T14:13:46.593Z,20.27
2023-03-04T14:16:20.901Z,28.30
2023-03-04T14:18:59.076Z,19.47
2023-03-04T14:21:27.146Z,35.95
2023-03-04T14:24:07.374Z,26.23
2023-03-04T14:26:35.989Z,15.05
2023-03-04T14:29:26.971Z,15.23
2023-03-04T14:31:55.721Z,15.63
2023-03-04T14:34:31.977Z,14.52
2023-03-04T14:37:00.190Z,15.52
2023-03-04T14:39:31.460Z,15.95
2023-03-04T14:42:02.347Z,13.90
2023-03-04T14:44:36.172Z,13.00
2023-03-04T14:47:11.380Z,13.80
2023-03-04T14:49:40.318Z,14.95
2023-03-04T14:52:13.769Z,14.48
2023-03-04T14:54:42.870Z,14.18
2023-03-04T14:57:26.346Z,15.47
2023-03-04T14:59:56.203Z,14.27
2023-03-04T15:02:31.467Z,14.70
2023-03-04T15:05:01.829Z,16.15
2023-03-04T15:07:33.200Z,15.23
2023-03-04T15:10:04.471Z,17.03
2023-03-04T15:12:34.191Z,17.88
2023-03-04T15:15:05.841Z,17.25
2023-03-04T15:17:38.643Z,13.55
2023-03-04T15:20:27.204Z,15.35
2023-03-04T15:23:00.825Z,16.13
2023-03-04T15:25:29.738Z,14.18
2023-03-04T15:28:00.005Z,17.80
2023-03-04T15:30:33.217Z,17.30
2023-03-04T15:33:01.801Z,17.58
2023-03-04T15:35:32.555Z,14.77
2023-03-04T15:38:01.534Z,14.40
2023-03-04T15:40:32.357Z,13.93
2023-03-04T15:43:02.870Z,15.07
2023-03-04T15:45:35.935Z,15.40
2023-03-04T15:48:07.774Z,14.63
2023-03-04T15:50:37.590Z,15.98
2023-03-04T15:53:08.283Z,15.38
2023-03-04T15:55:36.992Z,15.38
2023-03-04T15:58:05.553Z,15.18
2023-03-04T16:00:35.276Z,14.33
2023-03-04T16:03:03.385Z,13.82
2023-03-04T16:05:32.122Z,14.35
2023-03-04T16:08:00.189Z,16.95
2023-03-04T16:10:30.663Z,23.48
2023-03-04T16:12:58.750Z,24.23
2023-03-04T16:15:28.954Z,24.42
2023-03-04T16:17:59.656Z,19.73
2023-03-04T16:20:29.928Z,16.42
2023-03-04T16:23:00.066Z,16.08
2023-03-04T16:25:30.171Z,29.77
2023-03-04T16:28:02.650Z,25.23
2023-03-04T16:30:31.484Z,19.63
2023-03-04T16:33:00.858Z,17.15
2023-03-04T16:35:29.714Z,15.57
2023-03-04T16:37:58.511Z,28.13
2023-03-04T16:40:29.690Z,18.05
2023-03-04T16:42:58.103Z,17.58
2023-03-04T16:45:30.114Z,17.50
2023-03-04T16:47:59.549Z,21.85
2023-03-04T16:50:30.335Z,23.10
2023-03-04T16:52:58.339Z,21.80
2023-03-04T16:55:28.523Z,14.80
2023-03-04T16:57:57.679Z,20.50
2023-03-04T17:00:28.982Z,19.50
2023-03-04T17:13:26.179Z,13.07
2023-03-04T17:15:54.621Z,13.82
2023-03-04T17:18:22.687Z,14.65
2023-03-04T17:20:57.228Z,12.40
2023-03-04T17:23:39.727Z,14.02
2023-03-04T17:26:09.189Z,14.60
2023-03-04T17:28:39.065Z,14.77
2023-03-04T17:31:40.445Z,15.52
2023-03-04T17:34:14.546Z,14.23
2023-03-04T17:36:42.954Z,14.85
2023-03-04T17:39:12.389Z,14.13
2023-03-04T17:41:40.990Z,13.70
2023-03-04T17:44:11.494Z,14.60
2023-03-04T17:46:40.153Z,14.63
2023-03-04T17:49:08.244Z,15.57
2023-03-04T17:51:37.927Z,15.63
2023-03-04T17:54:08.413Z,15.65
2023-03-04T17:56:38.001Z,14.68
2023-03-04T17:59:09.721Z,15.93
2023-03-04T18:01:39.711Z,14.82
2023-03-04T18:04:08.290Z,14.05
2023-03-04T18:06:36.709Z,13.77
2023-03-04T18:09:05.158Z,14.65
2023-03-04T18:11:34.688Z,14.10
2023-03-04T18:14:02.825Z,14.57
2023-03-04T18:16:31.560Z,14.10
2023-03-04T18:19:02.185Z,14.57
2023-03-04T18:21:30.898Z,15.38
2023-03-04T18:23:59.505Z,14.67
2023-03-04T18:26:28.221Z,14.55
2023-03-04T18:28:57.034Z,15.05
2023-03-04T18:31:31.064Z,15.38
2023-03-04T18:34:02.200Z,14.68
2023-03-04T18:36:30.636Z,14.07
2023-03-04T18:38:59.445Z,14.68
2023-03-04T18:41:28.321Z,15.27
2023-03-04T18:43:56.964Z,15.50
2023-03-04T18:46:31.908Z,16.10
2023-03-04T18:49:04.296Z,17.80
2023-03-04T18:51:32.744Z,16.83
2023-03-04T18:54:00.764Z,16.00
2023-03-04T18:56:37.611Z,17.42
2023-03-04T18:59:08.738Z,17.77
2023-03-04T19:01:37.937Z,16.70
2023-03-04T19:04:07.476Z,16.90
2023-03-04T19:06:36.383Z,17.27
2023-03-04T19:09:05.387Z,15.13
2023-03-04T19:11:33.646Z,16.20
2023-03-04T19:14:01.840Z,14.80
2023-03-04T19:16:30.308Z,16.83
2023-03-04T19:18:58.546Z,15.57
2023-03-04T19:21:28.274Z,16.25
2023-03-04T19:23:56.324Z,16.92
2023-03-04T19:26:24.704Z,15.70
2023-03-04T19:28:52.712Z,15.55
2023-03-04T19:31:21.112Z,16.25
2023-03-04T19:33:49.279Z,15.25
2023-03-04T19:36:17.590Z,15.23
2023-03-04T19:38:47.011Z,15.67
2023-03-04T19:41:17.165Z,15.23
2023-03-04T19:43:46.035Z,15.35
2023-03-04T19:46:15.222Z,15.65
2023-03-04T19:48:45.031Z,15.52
2023-03-04T19:51:16.709Z,15.53
2023-03-04T19:53:44.972Z,15.27
2023-03-04T19:56:14.757Z,13.80
2023-03-04T19:58:42.853Z,15.85
2023-03-04T20:01:21.184Z,16.08
2023-03-04T20:03:49.421Z,14.80
2023-03-04T20:06:17.757Z,15.88
2023-03-04T20:08:45.805Z,15.07
2023-03-04T20:11:15.530Z,14.00
2023-03-04T20:13:43.752Z,14.10
2023-03-04T20:16:12.694Z,14.87
2023-03-04T20:18:41.044Z,14.25
2023-03-04T20:21:12.493Z,13.93
2023-03-04T20:23:40.667Z,14.27
2023-03-04T20:26:09.007Z,13.75
2023-03-04T20:28:51.636Z,13.43
2023-03-04T20:31:22.650Z,13.57
2023-03-04T20:33:51.603Z,13.05
2023-03-04T20:36:21.160Z,13.70
2023-03-04T20:38:51.264Z,13.75
2023-03-04T20:41:25.318Z,13.20
2023-03-04T20:43:54.815Z,13.23
2023-03-04T20:46:32.317Z,14.30
2023-03-04T20:49:02.238Z,13.73
2023-03-04T20:51:31.871Z,14.20
2023-03-04T20:54:00.830Z,14.87
2023-03-04T20:56:29.606Z,13.65
2023-03-04T20:58:59.448Z,13.65
2023-03-04T21:01:27.875Z,13.15
2023-03-04T21:03:56.089Z,13.73
2023-03-04T21:06:25.176Z,14.30
2023-03-04T21:08:53.506Z,13.73
2023-03-04T21:11:23.339Z,14.98
2023-03-04T21:13:55.997Z,14.75
2023-03-04T21:16:27.206Z,14.50
2023-03-04T21:18:55.511Z,13.00
2023-03-04T21:21:26.035Z,13.32
2023-03-04T21:23:55.406Z,13.10
2023-03-04T21:26:24.151Z,13.63
2023-03-04T21:28:52.622Z,13.25
2023-03-04T21:31:23.020Z,13.33
2023-03-04T21:33:53.138Z,14.00
2023-03-04T21:36:22.058Z,13.10
2023-03-04T21:38:50.575Z,13.65
2023-03-04T21:41:21.420Z,13.32
2023-03-04T21:43:49.932Z,13.17
2023-03-04T21:46:19.070Z,13.52
2023-03-04T21:48:48.214Z,13.23
2023-03-04T21:51:19.725Z,13.45
2023-03-04T21:53:47.952Z,13.13
2023-03-04T21:56:16.329Z,13.40
2023-03-04T21:58:45.809Z,12.18
2023-03-04T22:01:15.417Z,12.80
2023-03-04T22:03:43.757Z,12.90
2023-03-04T22:06:13.373Z,13.40
2023-03-04T22:08:42.952Z,15.23
2023-03-04T22:11:12.461Z,13.95
2023-03-04T22:13:40.823Z,13.07
2023-03-04T22:16:10.587Z,13.63
2023-03-04T22:18:40.658Z,13.23
2023-03-04T22:21:11.054Z,13.43
2023-03-04T22:23:39.699Z,14.43
2023-03-04T22:26:12.569Z,13.13
2023-03-04T22:28:41.266Z,12.93
2023-03-04T22:31:21.212Z,13.40
2023-03-04T22:33:49.305Z,13.00
2023-03-04T22:36:17.611Z,12.75
2023-03-04T22:38:45.805Z,12.18
2023-03-04T22:41:16.820Z,13.43
2023-03-04T22:43:49.748Z,12.98
2023-03-04T22:46:20.637Z,13.10
2023-03-04T22:48:49.075Z,12.88
2023-03-04T22:51:17.407Z,11.85
2023-03-04T22:53:45.800Z,12.88
2023-03-04T22:56:15.653Z,12.30
2023-03-04T22:58:44.331Z,12.00
2023-03-04T23:01:14.359Z,12.65
2023-03-04T23:03:44.198Z,13.13
2023-03-04T23:06:14.432Z,11.98
2023-03-04T23:08:44.831Z,11.95
2023-03-04T23:11:16.980Z,12.70
2023-03-04T23:13:45.188Z,11.75
2023-03-04T23:16:14.266Z,14.25
2023-03-04T23:18:43.388Z,12.45
2023-03-04T23:21:14.595Z,12.57
2023-03-04T23:23:43.263Z,12.47
2023-03-04T23:26:16.434Z,11.57
2023-03-04T23:28:44.935Z,12.88
2023-03-04T23:31:14.627Z,12.25
2023-03-04T23:33:43.352Z,13.38
2023-03-04T23:36:15.225Z,12.97
2023-03-04T23:38:44.346Z,12.98
2023-03-04T23:41:13.643Z,12.82
2023-03-04T23:43:43.270Z,11.32
2023-03-04T23:46:12.393Z,12.20
2023-03-04T23:48:43.124Z,12.60
2023-03-04T23:51:11.567Z,12.43
2023-03-04T23:53:39.762Z,12.77
2023-03-04T23:56:09.190Z,13.05
2023-03-04T23:58:37.581Z,12.52
